L' Anse, Michigan
Current Conditions -  °F | °C
As of 6:53 PM on Friday 28 Nov 2014 (Local Time) from KCMX Reporting Station
Overcast Overcast  
Wind Chill: 11°   Ceiling: 1900
Heat Index: 18°   Visibility: 10mi
Dew Point:   Wind: 5mph
Humidity: 65%   Direction: 80°E
Pressure: 29.92"   Gusts: NA
Location:  46.7277°N, 88.2881°W
Report Text: KCMX 282353Z AUTO 08004KT 10SM OVC019 M08/M13 A2992 RMK AO2 SLP155 T10781133 11078 21111 58014
Loading
Personal Weather Stations






























Interactive Weather Map New forecast layout! Learn more

10-Day Weather Forecast

Advertisements
Track Severe Weather on mobile